sensor_id;sensor_type;location;lat;lon;timestamp;P1;durP1;ratioP1;P2;durP2;ratioP2
69890;SDS011;57170;43.964;21.262;2023-12-07T00:00:43;56.92;;;38.10;;
69890;SDS011;57170;43.964;21.262;2023-12-07T00:03:09;50.60;;;36.10;;
69890;SDS011;57170;43.964;21.262;2023-12-07T00:05:35;49.00;;;37.80;;
69890;SDS011;57170;43.964;21.262;2023-12-07T00:08:02;51.00;;;37.42;;
69890;SDS011;57170;43.964;21.262;2023-12-07T00:10:28;52.40;;;36.90;;
69890;SDS011;57170;43.964;21.262;2023-12-07T00:12:54;46.80;;;34.28;;
69890;SDS011;57170;43.964;21.262;2023-12-07T00:15:20;44.70;;;33.28;;
69890;SDS011;57170;43.964;21.262;2023-12-07T00:17:46;45.65;;;31.02;;
69890;SDS011;57170;43.964;21.262;2023-12-07T00:20:13;43.13;;;33.28;;
69890;SDS011;57170;43.964;21.262;2023-12-07T00:22:39;47.10;;;34.38;;
69890;SDS011;57170;43.964;21.262;2023-12-07T00:25:06;45.28;;;32.80;;
69890;SDS011;57170;43.964;21.262;2023-12-07T00:27:32;41.13;;;32.45;;
69890;SDS011;57170;43.964;21.262;2023-12-07T00:29:59;42.10;;;32.17;;
69890;SDS011;57170;43.964;21.262;2023-12-07T00:32:25;42.13;;;31.52;;
69890;SDS011;57170;43.964;21.262;2023-12-07T00:34:52;40.63;;;30.95;;
69890;SDS011;57170;43.964;21.262;2023-12-07T00:37:18;41.30;;;33.58;;
69890;SDS011;57170;43.964;21.262;2023-12-07T00:39:44;34.60;;;28.50;;
69890;SDS011;57170;43.964;21.262;2023-12-07T00:42:10;39.35;;;30.75;;
69890;SDS011;57170;43.964;21.262;2023-12-07T00:44:40;40.70;;;31.20;;
69890;SDS011;57170;43.964;21.262;2023-12-07T00:47:06;41.78;;;30.63;;
69890;SDS011;57170;43.964;21.262;2023-12-07T00:49:33;42.97;;;32.00;;
69890;SDS011;57170;43.964;21.262;2023-12-07T00:51:59;43.85;;;33.55;;
69890;SDS011;57170;43.964;21.262;2023-12-07T00:54:25;41.70;;;31.98;;
69890;SDS011;57170;43.964;21.262;2023-12-07T00:56:51;40.53;;;32.08;;
69890;SDS011;57170;43.964;21.262;2023-12-07T00:59:17;41.53;;;33.05;;
69890;SDS011;57170;43.964;21.262;2023-12-07T01:01:43;40.67;;;32.60;;
69890;SDS011;57170;43.964;21.262;2023-12-07T01:04:09;40.92;;;31.52;;
69890;SDS011;57170;43.964;21.262;2023-12-07T01:06:36;43.20;;;33.40;;
69890;SDS011;57170;43.964;21.262;2023-12-07T01:09:02;49.90;;;36.38;;
69890;SDS011;57170;43.964;21.262;2023-12-07T01:11:28;48.63;;;36.95;;
69890;SDS011;57170;43.964;21.262;2023-12-07T01:13:54;48.38;;;36.75;;
69890;SDS011;57170;43.964;21.262;2023-12-07T01:16:21;44.38;;;32.92;;
69890;SDS011;57170;43.964;21.262;2023-12-07T01:18:47;38.50;;;29.95;;
69890;SDS011;57170;43.964;21.262;2023-12-07T01:21:13;39.80;;;32.35;;
69890;SDS011;57170;43.964;21.262;2023-12-07T01:23:39;37.08;;;28.60;;
69890;SDS011;57170;43.964;21.262;2023-12-07T01:26:05;32.72;;;26.05;;
69890;SDS011;57170;43.964;21.262;2023-12-07T01:28:32;36.72;;;28.45;;
69890;SDS011;57170;43.964;21.262;2023-12-07T01:30:59;41.00;;;30.60;;
69890;SDS011;57170;43.964;21.262;2023-12-07T01:33:25;40.17;;;29.08;;
69890;SDS011;57170;43.964;21.262;2023-12-07T01:35:51;35.08;;;28.13;;
69890;SDS011;57170;43.964;21.262;2023-12-07T01:38:17;34.80;;;27.58;;
69890;SDS011;57170;43.964;21.262;2023-12-07T01:40:44;39.90;;;27.63;;
69890;SDS011;57170;43.964;21.262;2023-12-07T01:43:10;36.95;;;26.98;;
69890;SDS011;57170;43.964;21.262;2023-12-07T01:45:36;39.03;;;29.55;;
69890;SDS011;57170;43.964;21.262;2023-12-07T01:48:02;35.72;;;26.60;;
69890;SDS011;57170;43.964;21.262;2023-12-07T01:50:28;41.63;;;29.95;;
69890;SDS011;57170;43.964;21.262;2023-12-07T01:52:57;38.45;;;28.08;;
69890;SDS011;57170;43.964;21.262;2023-12-07T01:55:25;38.08;;;29.00;;
69890;SDS011;57170;43.964;21.262;2023-12-07T01:57:52;36.17;;;28.40;;
69890;SDS011;57170;43.964;21.262;2023-12-07T02:00:18;36.00;;;28.20;;
69890;SDS011;57170;43.964;21.262;2023-12-07T02:02:45;34.72;;;29.15;;
69890;SDS011;57170;43.964;21.262;2023-12-07T02:05:13;35.38;;;27.58;;
69890;SDS011;57170;43.964;21.262;2023-12-07T02:07:42;35.30;;;27.83;;
69890;SDS011;57170;43.964;21.262;2023-12-07T02:10:08;38.25;;;28.40;;
69890;SDS011;57170;43.964;21.262;2023-12-07T02:12:34;33.75;;;27.20;;
69890;SDS011;57170;43.964;21.262;2023-12-07T02:15:02;40.33;;;30.35;;
69890;SDS011;57170;43.964;21.262;2023-12-07T02:20:26;36.30;;;26.90;;
69890;SDS011;57170;43.964;21.262;2023-12-07T02:22:55;32.17;;;25.52;;
69890;SDS011;57170;43.964;21.262;2023-12-07T02:28:35;34.10;;;26.70;;
69890;SDS011;57170;43.964;21.262;2023-12-07T02:31:01;42.90;;;28.65;;
69890;SDS011;57170;43.964;21.262;2023-12-07T02:33:28;36.88;;;27.77;;
69890;SDS011;57170;43.964;21.262;2023-12-07T02:35:54;35.65;;;26.52;;
69890;SDS011;57170;43.964;21.262;2023-12-07T02:38:20;33.97;;;25.92;;
69890;SDS011;57170;43.964;21.262;2023-12-07T02:40:48;36.50;;;27.88;;
69890;SDS011;57170;43.964;21.262;2023-12-07T02:43:14;32.78;;;26.42;;
69890;SDS011;57170;43.964;21.262;2023-12-07T02:45:41;36.33;;;27.77;;
69890;SDS011;57170;43.964;21.262;2023-12-07T02:48:07;31.98;;;27.58;;
69890;SDS011;57170;43.964;21.262;2023-12-07T02:50:33;36.08;;;28.50;;
69890;SDS011;57170;43.964;21.262;2023-12-07T02:52:59;37.85;;;28.08;;
69890;SDS011;57170;43.964;21.262;2023-12-07T02:55:25;36.30;;;26.42;;
69890;SDS011;57170;43.964;21.262;2023-12-07T02:57:52;34.10;;;28.08;;
69890;SDS011;57170;43.964;21.262;2023-12-07T03:00:18;34.97;;;26.88;;
69890;SDS011;57170;43.964;21.262;2023-12-07T03:02:45;30.80;;;26.42;;
69890;SDS011;57170;43.964;21.262;2023-12-07T03:05:12;30.60;;;26.40;;
69890;SDS011;57170;43.964;21.262;2023-12-07T03:07:39;31.90;;;25.98;;
69890;SDS011;57170;43.964;21.262;2023-12-07T03:10:05;31.33;;;26.27;;
69890;SDS011;57170;43.964;21.262;2023-12-07T03:12:31;36.72;;;26.55;;
69890;SDS011;57170;43.964;21.262;2023-12-07T03:14:57;38.03;;;29.02;;
69890;SDS011;57170;43.964;21.262;2023-12-07T03:17:24;33.65;;;27.05;;
69890;SDS011;57170;43.964;21.262;2023-12-07T03:19:50;34.67;;;27.10;;
69890;SDS011;57170;43.964;21.262;2023-12-07T03:22:16;30.55;;;23.83;;
69890;SDS011;57170;43.964;21.262;2023-12-07T03:24:49;27.20;;;23.30;;
69890;SDS011;57170;43.964;21.262;2023-12-07T03:27:16;31.35;;;23.73;;
69890;SDS011;57170;43.964;21.262;2023-12-07T03:29:42;33.08;;;26.13;;
69890;SDS011;57170;43.964;21.262;2023-12-07T03:32:08;33.80;;;24.88;;
69890;SDS011;57170;43.964;21.262;2023-12-07T03:34:34;33.55;;;26.38;;
69890;SDS011;57170;43.964;21.262;2023-12-07T03:37:00;33.60;;;27.08;;
69890;SDS011;57170;43.964;21.262;2023-12-07T03:39:28;36.70;;;29.67;;
69890;SDS011;57170;43.964;21.262;2023-12-07T03:41:54;39.20;;;29.10;;
69890;SDS011;57170;43.964;21.262;2023-12-07T03:44:20;34.28;;;27.52;;
69890;SDS011;57170;43.964;21.262;2023-12-07T03:46:47;36.25;;;27.77;;
69890;SDS011;57170;43.964;21.262;2023-12-07T03:49:13;36.53;;;28.48;;
69890;SDS011;57170;43.964;21.262;2023-12-07T03:51:39;37.42;;;27.85;;
69890;SDS011;57170;43.964;21.262;2023-12-07T03:54:05;32.53;;;26.85;;
69890;SDS011;57170;43.964;21.262;2023-12-07T03:56:32;31.65;;;25.45;;
69890;SDS011;57170;43.964;21.262;2023-12-07T03:58:58;39.72;;;26.77;;
69890;SDS011;57170;43.964;21.262;2023-12-07T04:01:25;36.00;;;27.23;;
69890;SDS011;57170;43.964;21.262;2023-12-07T04:03:52;36.53;;;28.73;;
69890;SDS011;57170;43.964;21.262;2023-12-07T04:06:20;34.35;;;26.13;;
69890;SDS011;57170;43.964;21.262;2023-12-07T04:08:46;34.22;;;27.33;;
69890;SDS011;57170;43.964;21.262;2023-12-07T04:11:12;29.08;;;25.90;;
69890;SDS011;57170;43.964;21.262;2023-12-07T04:13:39;35.38;;;27.33;;
69890;SDS011;57170;43.964;21.262;2023-12-07T04:16:05;32.75;;;25.48;;
69890;SDS011;57170;43.964;21.262;2023-12-07T04:18:31;31.95;;;24.67;;
69890;SDS011;57170;43.964;21.262;2023-12-07T04:20:58;33.65;;;24.25;;
69890;SDS011;57170;43.964;21.262;2023-12-07T04:23:24;33.40;;;27.00;;
69890;SDS011;57170;43.964;21.262;2023-12-07T04:25:50;32.63;;;24.88;;
69890;SDS011;57170;43.964;21.262;2023-12-07T04:28:16;33.70;;;24.65;;
69890;SDS011;57170;43.964;21.262;2023-12-07T04:30:43;32.95;;;27.17;;
69890;SDS011;57170;43.964;21.262;2023-12-07T04:33:09;33.60;;;26.23;;
69890;SDS011;57170;43.964;21.262;2023-12-07T04:35:35;32.78;;;27.20;;
69890;SDS011;57170;43.964;21.262;2023-12-07T04:38:01;35.42;;;27.63;;
69890;SDS011;57170;43.964;21.262;2023-12-07T04:40:27;32.05;;;24.30;;
69890;SDS011;57170;43.964;21.262;2023-12-07T04:42:54;30.48;;;24.92;;
69890;SDS011;57170;43.964;21.262;2023-12-07T04:45:20;35.65;;;25.35;;
69890;SDS011;57170;43.964;21.262;2023-12-07T04:47:46;34.95;;;26.35;;
69890;SDS011;57170;43.964;21.262;2023-12-07T04:50:12;37.10;;;26.52;;
69890;SDS011;57170;43.964;21.262;2023-12-07T04:52:38;34.67;;;25.92;;
69890;SDS011;57170;43.964;21.262;2023-12-07T04:55:05;35.65;;;27.00;;
69890;SDS011;57170;43.964;21.262;2023-12-07T04:57:33;33.83;;;26.23;;
69890;SDS011;57170;43.964;21.262;2023-12-07T04:59:59;42.85;;;26.92;;
69890;SDS011;57170;43.964;21.262;2023-12-07T05:02:25;34.42;;;27.20;;
69890;SDS011;57170;43.964;21.262;2023-12-07T05:04:53;33.88;;;26.13;;
69890;SDS011;57170;43.964;21.262;2023-12-07T05:07:19;34.55;;;28.08;;
69890;SDS011;57170;43.964;21.262;2023-12-07T05:09:45;31.48;;;26.00;;
69890;SDS011;57170;43.964;21.262;2023-12-07T05:12:11;36.20;;;26.63;;
69890;SDS011;57170;43.964;21.262;2023-12-07T05:14:37;31.52;;;27.50;;
69890;SDS011;57170;43.964;21.262;2023-12-07T05:17:04;35.08;;;27.27;;
69890;SDS011;57170;43.964;21.262;2023-12-07T05:19:30;37.22;;;29.58;;
69890;SDS011;57170;43.964;21.262;2023-12-07T05:21:56;48.63;;;37.33;;
69890;SDS011;57170;43.964;21.262;2023-12-07T05:24:22;60.50;;;45.10;;
69890;SDS011;57170;43.964;21.262;2023-12-07T05:26:48;61.42;;;46.30;;
69890;SDS011;57170;43.964;21.262;2023-12-07T05:29:14;49.20;;;38.70;;
69890;SDS011;57170;43.964;21.262;2023-12-07T05:31:41;55.85;;;43.55;;
69890;SDS011;57170;43.964;21.262;2023-12-07T05:34:07;43.05;;;34.65;;
69890;SDS011;57170;43.964;21.262;2023-12-07T05:36:33;46.85;;;33.35;;
69890;SDS011;57170;43.964;21.262;2023-12-07T05:38:59;41.25;;;30.08;;
69890;SDS011;57170;43.964;21.262;2023-12-07T05:41:25;36.60;;;30.13;;
69890;SDS011;57170;43.964;21.262;2023-12-07T05:43:52;47.90;;;35.28;;
69890;SDS011;57170;43.964;21.262;2023-12-07T05:46:18;47.08;;;32.83;;
69890;SDS011;57170;43.964;21.262;2023-12-07T05:48:44;46.53;;;33.17;;
69890;SDS011;57170;43.964;21.262;2023-12-07T05:51:12;41.67;;;31.33;;
69890;SDS011;57170;43.964;21.262;2023-12-07T05:53:39;41.83;;;34.72;;
69890;SDS011;57170;43.964;21.262;2023-12-07T05:56:05;52.38;;;36.75;;
69890;SDS011;57170;43.964;21.262;2023-12-07T05:58:31;56.65;;;40.47;;
69890;SDS011;57170;43.964;21.262;2023-12-07T06:00:57;50.15;;;39.08;;
69890;SDS011;57170;43.964;21.262;2023-12-07T06:03:24;51.80;;;39.67;;
69890;SDS011;57170;43.964;21.262;2023-12-07T06:05:51;63.22;;;44.80;;
69890;SDS011;57170;43.964;21.262;2023-12-07T06:08:17;67.85;;;50.55;;
69890;SDS011;57170;43.964;21.262;2023-12-07T06:10:43;61.00;;;44.47;;
69890;SDS011;57170;43.964;21.262;2023-12-07T06:13:10;63.17;;;45.78;;
69890;SDS011;57170;43.964;21.262;2023-12-07T06:15:36;59.45;;;42.50;;
69890;SDS011;57170;43.964;21.262;2023-12-07T06:18:02;50.40;;;37.35;;
69890;SDS011;57170;43.964;21.262;2023-12-07T06:20:29;52.05;;;37.30;;
69890;SDS011;57170;43.964;21.262;2023-12-07T06:22:55;62.00;;;47.40;;
69890;SDS011;57170;43.964;21.262;2023-12-07T06:25:22;53.83;;;37.75;;
69890;SDS011;57170;43.964;21.262;2023-12-07T06:27:48;53.60;;;37.67;;
69890;SDS011;57170;43.964;21.262;2023-12-07T06:30:15;51.88;;;38.95;;
69890;SDS011;57170;43.964;21.262;2023-12-07T06:32:41;46.15;;;35.63;;
69890;SDS011;57170;43.964;21.262;2023-12-07T06:35:07;39.25;;;32.22;;
69890;SDS011;57170;43.964;21.262;2023-12-07T06:37:33;45.17;;;33.90;;
69890;SDS011;57170;43.964;21.262;2023-12-07T06:39:59;38.70;;;29.17;;
69890;SDS011;57170;43.964;21.262;2023-12-07T06:42:26;33.45;;;26.50;;
69890;SDS011;57170;43.964;21.262;2023-12-07T06:44:52;33.13;;;24.42;;
69890;SDS011;57170;43.964;21.262;2023-12-07T06:47:18;36.67;;;26.63;;
69890;SDS011;57170;43.964;21.262;2023-12-07T06:49:44;33.40;;;25.42;;
69890;SDS011;57170;43.964;21.262;2023-12-07T06:52:11;34.70;;;25.42;;
69890;SDS011;57170;43.964;21.262;2023-12-07T06:54:37;39.38;;;30.58;;
69890;SDS011;57170;43.964;21.262;2023-12-07T06:57:04;43.67;;;32.97;;
69890;SDS011;57170;43.964;21.262;2023-12-07T06:59:32;33.13;;;24.73;;
69890;SDS011;57170;43.964;21.262;2023-12-07T07:01:58;32.47;;;24.90;;
69890;SDS011;57170;43.964;21.262;2023-12-07T07:04:24;28.02;;;23.05;;
69890;SDS011;57170;43.964;21.262;2023-12-07T07:06:50;34.55;;;26.15;;
69890;SDS011;57170;43.964;21.262;2023-12-07T07:09:17;32.53;;;25.10;;
69890;SDS011;57170;43.964;21.262;2023-12-07T07:11:49;25.65;;;19.55;;
69890;SDS011;57170;43.964;21.262;2023-12-07T07:14:16;24.27;;;20.85;;
69890;SDS011;57170;43.964;21.262;2023-12-07T07:16:42;25.83;;;19.98;;
69890;SDS011;57170;43.964;21.262;2023-12-07T07:19:08;24.20;;;18.52;;
69890;SDS011;57170;43.964;21.262;2023-12-07T07:21:34;24.17;;;18.45;;
69890;SDS011;57170;43.964;21.262;2023-12-07T07:24:00;21.10;;;16.15;;
69890;SDS011;57170;43.964;21.262;2023-12-07T07:26:27;24.92;;;18.58;;
69890;SDS011;57170;43.964;21.262;2023-12-07T07:28:53;24.42;;;17.30;;
69890;SDS011;57170;43.964;21.262;2023-12-07T07:31:19;22.35;;;17.70;;
69890;SDS011;57170;43.964;21.262;2023-12-07T07:33:45;17.90;;;15.65;;
69890;SDS011;57170;43.964;21.262;2023-12-07T07:36:14;24.73;;;17.70;;
69890;SDS011;57170;43.964;21.262;2023-12-07T07:38:41;24.25;;;18.85;;
69890;SDS011;57170;43.964;21.262;2023-12-07T07:41:07;27.95;;;19.67;;
69890;SDS011;57170;43.964;21.262;2023-12-07T07:43:33;24.10;;;19.08;;
69890;SDS011;57170;43.964;21.262;2023-12-07T07:45:59;28.27;;;21.05;;
69890;SDS011;57170;43.964;21.262;2023-12-07T07:48:26;25.63;;;18.15;;
69890;SDS011;57170;43.964;21.262;2023-12-07T07:50:52;27.02;;;19.27;;
69890;SDS011;57170;43.964;21.262;2023-12-07T07:53:18;36.83;;;23.33;;
69890;SDS011;57170;43.964;21.262;2023-12-07T07:55:44;29.80;;;21.02;;
69890;SDS011;57170;43.964;21.262;2023-12-07T07:58:10;30.05;;;21.27;;
69890;SDS011;57170;43.964;21.262;2023-12-07T08:00:36;35.45;;;23.90;;
69890;SDS011;57170;43.964;21.262;2023-12-07T08:03:02;31.73;;;24.95;;
69890;SDS011;57170;43.964;21.262;2023-12-07T08:05:28;29.60;;;21.48;;
69890;SDS011;57170;43.964;21.262;2023-12-07T08:07:54;27.83;;;21.45;;
69890;SDS011;57170;43.964;21.262;2023-12-07T08:10:21;33.03;;;25.02;;
69890;SDS011;57170;43.964;21.262;2023-12-07T08:12:47;32.10;;;24.02;;
69890;SDS011;57170;43.964;21.262;2023-12-07T08:15:13;33.47;;;25.40;;
69890;SDS011;57170;43.964;21.262;2023-12-07T08:17:39;39.08;;;29.92;;
69890;SDS011;57170;43.964;21.262;2023-12-07T08:20:09;34.58;;;27.27;;
69890;SDS011;57170;43.964;21.262;2023-12-07T08:22:39;35.05;;;26.33;;
69890;SDS011;57170;43.964;21.262;2023-12-07T08:25:06;35.22;;;26.60;;
69890;SDS011;57170;43.964;21.262;2023-12-07T08:27:34;31.23;;;25.13;;
69890;SDS011;57170;43.964;21.262;2023-12-07T08:30:01;32.55;;;26.05;;
69890;SDS011;57170;43.964;21.262;2023-12-07T08:32:27;28.55;;;23.60;;
69890;SDS011;57170;43.964;21.262;2023-12-07T08:34:54;32.15;;;22.83;;
69890;SDS011;57170;43.964;21.262;2023-12-07T08:37:20;30.30;;;22.65;;
69890;SDS011;57170;43.964;21.262;2023-12-07T08:39:46;27.98;;;21.45;;
69890;SDS011;57170;43.964;21.262;2023-12-07T08:42:12;32.95;;;22.30;;
69890;SDS011;57170;43.964;21.262;2023-12-07T08:44:38;28.63;;;21.77;;
69890;SDS011;57170;43.964;21.262;2023-12-07T08:47:05;32.63;;;22.98;;
69890;SDS011;57170;43.964;21.262;2023-12-07T08:49:31;32.30;;;22.55;;
69890;SDS011;57170;43.964;21.262;2023-12-07T08:51:57;33.85;;;23.00;;
69890;SDS011;57170;43.964;21.262;2023-12-07T08:54:23;30.83;;;24.13;;
69890;SDS011;57170;43.964;21.262;2023-12-07T08:56:49;31.30;;;23.23;;
69890;SDS011;57170;43.964;21.262;2023-12-07T08:59:15;31.33;;;23.38;;
69890;SDS011;57170;43.964;21.262;2023-12-07T09:01:41;34.40;;;25.02;;
69890;SDS011;57170;43.964;21.262;2023-12-07T09:04:07;35.88;;;27.63;;
69890;SDS011;57170;43.964;21.262;2023-12-07T09:06:34;36.15;;;27.38;;
69890;SDS011;57170;43.964;21.262;2023-12-07T09:09:00;43.83;;;30.17;;
69890;SDS011;57170;43.964;21.262;2023-12-07T09:11:27;38.35;;;28.08;;
69890;SDS011;57170;43.964;21.262;2023-12-07T09:13:53;30.52;;;22.88;;
69890;SDS011;57170;43.964;21.262;2023-12-07T09:16:19;31.52;;;24.35;;
69890;SDS011;57170;43.964;21.262;2023-12-07T09:18:46;30.55;;;24.60;;
69890;SDS011;57170;43.964;21.262;2023-12-07T09:21:12;36.53;;;26.85;;
69890;SDS011;57170;43.964;21.262;2023-12-07T09:23:39;45.47;;;35.22;;
69890;SDS011;57170;43.964;21.262;2023-12-07T09:26:05;48.75;;;35.70;;
69890;SDS011;57170;43.964;21.262;2023-12-07T09:28:31;38.28;;;28.55;;
69890;SDS011;57170;43.964;21.262;2023-12-07T09:31:00;33.85;;;27.75;;
69890;SDS011;57170;43.964;21.262;2023-12-07T09:33:26;45.90;;;31.98;;
69890;SDS011;57170;43.964;21.262;2023-12-07T09:35:53;36.47;;;30.15;;
69890;SDS011;57170;43.964;21.262;2023-12-07T09:38:19;42.90;;;33.15;;
69890;SDS011;57170;43.964;21.262;2023-12-07T09:40:45;42.08;;;31.15;;
69890;SDS011;57170;43.964;21.262;2023-12-07T09:43:12;45.72;;;34.10;;
69890;SDS011;57170;43.964;21.262;2023-12-07T09:45:38;41.55;;;32.78;;
69890;SDS011;57170;43.964;21.262;2023-12-07T09:48:05;36.67;;;28.38;;
69890;SDS011;57170;43.964;21.262;2023-12-07T09:50:31;44.25;;;32.40;;
69890;SDS011;57170;43.964;21.262;2023-12-07T09:52:57;33.78;;;25.35;;
69890;SDS011;57170;43.964;21.262;2023-12-07T09:55:24;34.25;;;27.13;;
69890;SDS011;57170;43.964;21.262;2023-12-07T09:57:50;32.50;;;26.65;;
69890;SDS011;57170;43.964;21.262;2023-12-07T10:00:19;37.53;;;24.67;;
69890;SDS011;57170;43.964;21.262;2023-12-07T10:02:46;41.72;;;30.23;;
69890;SDS011;57170;43.964;21.262;2023-12-07T10:05:13;38.78;;;27.38;;
69890;SDS011;57170;43.964;21.262;2023-12-07T10:07:41;38.55;;;28.10;;
69890;SDS011;57170;43.964;21.262;2023-12-07T10:10:08;38.92;;;29.17;;
69890;SDS011;57170;43.964;21.262;2023-12-07T10:12:40;46.38;;;36.63;;
69890;SDS011;57170;43.964;21.262;2023-12-07T10:15:15;62.65;;;44.65;;
69890;SDS011;57170;43.964;21.262;2023-12-07T10:17:57;43.55;;;33.05;;
69890;SDS011;57170;43.964;21.262;2023-12-07T10:20:25;52.25;;;37.75;;
69890;SDS011;57170;43.964;21.262;2023-12-07T10:23:04;42.40;;;29.85;;
69890;SDS011;57170;43.964;21.262;2023-12-07T10:25:32;39.10;;;28.83;;
69890;SDS011;57170;43.964;21.262;2023-12-07T10:27:59;37.90;;;28.33;;
69890;SDS011;57170;43.964;21.262;2023-12-07T10:30:26;41.95;;;33.88;;
69890;SDS011;57170;43.964;21.262;2023-12-07T10:32:52;35.80;;;27.13;;
69890;SDS011;57170;43.964;21.262;2023-12-07T10:35:19;36.47;;;27.80;;
69890;SDS011;57170;43.964;21.262;2023-12-07T10:37:48;39.90;;;29.05;;
69890;SDS011;57170;43.964;21.262;2023-12-07T10:40:14;40.28;;;30.48;;
69890;SDS011;57170;43.964;21.262;2023-12-07T10:42:41;42.95;;;31.33;;
69890;SDS011;57170;43.964;21.262;2023-12-07T10:45:07;39.30;;;29.85;;
69890;SDS011;57170;43.964;21.262;2023-12-07T10:47:35;40.60;;;31.23;;
69890;SDS011;57170;43.964;21.262;2023-12-07T10:50:02;41.17;;;29.92;;
69890;SDS011;57170;43.964;21.262;2023-12-07T10:52:28;47.35;;;36.20;;
69890;SDS011;57170;43.964;21.262;2023-12-07T10:55:03;46.28;;;34.63;;
69890;SDS011;57170;43.964;21.262;2023-12-07T10:57:32;47.33;;;32.58;;
69890;SDS011;57170;43.964;21.262;2023-12-07T11:00:00;48.88;;;33.70;;
69890;SDS011;57170;43.964;21.262;2023-12-07T11:02:29;46.92;;;33.35;;
69890;SDS011;57170;43.964;21.262;2023-12-07T11:04:55;40.58;;;31.00;;
69890;SDS011;57170;43.964;21.262;2023-12-07T11:07:22;52.40;;;37.13;;
69890;SDS011;57170;43.964;21.262;2023-12-07T11:10:00;51.22;;;39.65;;
69890;SDS011;57170;43.964;21.262;2023-12-07T11:12:29;50.58;;;37.28;;
69890;SDS011;57170;43.964;21.262;2023-12-07T11:14:57;57.90;;;43.42;;
69890;SDS011;57170;43.964;21.262;2023-12-07T11:17:23;58.60;;;40.28;;
69890;SDS011;57170;43.964;21.262;2023-12-07T11:19:49;63.63;;;44.60;;
69890;SDS011;57170;43.964;21.262;2023-12-07T11:22:15;62.00;;;43.13;;
69890;SDS011;57170;43.964;21.262;2023-12-07T11:24:54;53.60;;;41.28;;
69890;SDS011;57170;43.964;21.262;2023-12-07T11:27:22;59.65;;;45.28;;
69890;SDS011;57170;43.964;21.262;2023-12-07T11:29:50;62.75;;;43.92;;
69890;SDS011;57170;43.964;21.262;2023-12-07T11:32:16;64.95;;;48.47;;
69890;SDS011;57170;43.964;21.262;2023-12-07T11:34:43;64.88;;;48.00;;
69890;SDS011;57170;43.964;21.262;2023-12-07T11:37:10;59.83;;;45.35;;
69890;SDS011;57170;43.964;21.262;2023-12-07T11:39:37;59.97;;;46.83;;
69890;SDS011;57170;43.964;21.262;2023-12-07T11:42:15;68.90;;;54.65;;
69890;SDS011;57170;43.964;21.262;2023-12-07T11:44:42;68.65;;;47.40;;
69890;SDS011;57170;43.964;21.262;2023-12-07T11:47:15;57.47;;;43.22;;
69890;SDS011;57170;43.964;21.262;2023-12-07T11:49:45;61.78;;;43.83;;
69890;SDS011;57170;43.964;21.262;2023-12-07T11:52:14;57.60;;;42.80;;
69890;SDS011;57170;43.964;21.262;2023-12-07T11:54:48;61.92;;;46.80;;
69890;SDS011;57170;43.964;21.262;2023-12-07T11:57:14;60.53;;;46.65;;
69890;SDS011;57170;43.964;21.262;2023-12-07T11:59:41;50.85;;;41.78;;
69890;SDS011;57170;43.964;21.262;2023-12-07T12:02:10;60.97;;;43.25;;
69890;SDS011;57170;43.964;21.262;2023-12-07T12:04:36;66.13;;;47.10;;
69890;SDS011;57170;43.964;21.262;2023-12-07T12:07:03;62.17;;;46.90;;
69890;SDS011;57170;43.964;21.262;2023-12-07T12:09:29;68.00;;;49.13;;
69890;SDS011;57170;43.964;21.262;2023-12-07T12:11:56;61.05;;;47.08;;
69890;SDS011;57170;43.964;21.262;2023-12-07T12:14:26;67.50;;;47.78;;
69890;SDS011;57170;43.964;21.262;2023-12-07T12:16:52;65.68;;;50.40;;
69890;SDS011;57170;43.964;21.262;2023-12-07T12:19:18;73.95;;;56.08;;
69890;SDS011;57170;43.964;21.262;2023-12-07T12:21:45;81.25;;;61.75;;
69890;SDS011;57170;43.964;21.262;2023-12-07T12:24:12;79.80;;;59.22;;
69890;SDS011;57170;43.964;21.262;2023-12-07T12:26:42;88.68;;;71.70;;
69890;SDS011;57170;43.964;21.262;2023-12-07T12:29:08;97.75;;;71.18;;
69890;SDS011;57170;43.964;21.262;2023-12-07T12:31:35;105.38;;;77.78;;
69890;SDS011;57170;43.964;21.262;2023-12-07T12:34:01;102.55;;;76.10;;
69890;SDS011;57170;43.964;21.262;2023-12-07T12:36:27;101.50;;;75.57;;
69890;SDS011;57170;43.964;21.262;2023-12-07T12:38:55;106.60;;;77.32;;
69890;SDS011;57170;43.964;21.262;2023-12-07T12:41:21;99.47;;;73.53;;
69890;SDS011;57170;43.964;21.262;2023-12-07T12:43:48;107.40;;;73.07;;
69890;SDS011;57170;43.964;21.262;2023-12-07T12:46:15;102.03;;;76.03;;
69890;SDS011;57170;43.964;21.262;2023-12-07T12:48:57;96.82;;;73.97;;
69890;SDS011;57170;43.964;21.262;2023-12-07T12:51:24;86.10;;;66.85;;
69890;SDS011;57170;43.964;21.262;2023-12-07T12:53:51;93.20;;;66.07;;
69890;SDS011;57170;43.964;21.262;2023-12-07T12:56:18;99.82;;;67.95;;
69890;SDS011;57170;43.964;21.262;2023-12-07T12:58:45;92.20;;;67.82;;
69890;SDS011;57170;43.964;21.262;2023-12-07T13:01:11;102.35;;;73.00;;
69890;SDS011;57170;43.964;21.262;2023-12-07T13:03:37;94.57;;;72.07;;
69890;SDS011;57170;43.964;21.262;2023-12-07T13:06:04;108.13;;;75.80;;
69890;SDS011;57170;43.964;21.262;2023-12-07T13:08:30;106.50;;;78.68;;
69890;SDS011;57170;43.964;21.262;2023-12-07T13:10:58;110.22;;;81.47;;
69890;SDS011;57170;43.964;21.262;2023-12-07T13:13:24;115.53;;;83.40;;
69890;SDS011;57170;43.964;21.262;2023-12-07T13:15:50;98.53;;;73.38;;
69890;SDS011;57170;43.964;21.262;2023-12-07T13:18:16;82.80;;;60.20;;
69890;SDS011;57170;43.964;21.262;2023-12-07T13:20:43;75.40;;;58.50;;
69890;SDS011;57170;43.964;21.262;2023-12-07T13:23:09;79.38;;;57.17;;
69890;SDS011;57170;43.964;21.262;2023-12-07T13:25:35;83.03;;;59.90;;
69890;SDS011;57170;43.964;21.262;2023-12-07T13:28:01;81.15;;;57.63;;
69890;SDS011;57170;43.964;21.262;2023-12-07T13:30:27;89.05;;;61.03;;
69890;SDS011;57170;43.964;21.262;2023-12-07T13:32:58;87.13;;;65.05;;
69890;SDS011;57170;43.964;21.262;2023-12-07T13:35:25;85.32;;;55.78;;
69890;SDS011;57170;43.964;21.262;2023-12-07T13:37:51;77.28;;;53.33;;
69890;SDS011;57170;43.964;21.262;2023-12-07T13:40:17;74.30;;;52.50;;
69890;SDS011;57170;43.964;21.262;2023-12-07T13:42:43;76.50;;;51.33;;
69890;SDS011;57170;43.964;21.262;2023-12-07T13:45:10;73.65;;;51.70;;
69890;SDS011;57170;43.964;21.262;2023-12-07T13:47:36;69.50;;;48.25;;
69890;SDS011;57170;43.964;21.262;2023-12-07T13:50:03;71.68;;;51.03;;
69890;SDS011;57170;43.964;21.262;2023-12-07T13:52:30;70.35;;;48.25;;
69890;SDS011;57170;43.964;21.262;2023-12-07T13:54:57;70.90;;;48.53;;
69890;SDS011;57170;43.964;21.262;2023-12-07T13:57:23;69.70;;;47.20;;
69890;SDS011;57170;43.964;21.262;2023-12-07T13:59:50;58.75;;;44.45;;
69890;SDS011;57170;43.964;21.262;2023-12-07T14:02:16;62.80;;;45.42;;
69890;SDS011;57170;43.964;21.262;2023-12-07T14:04:43;53.15;;;41.60;;
69890;SDS011;57170;43.964;21.262;2023-12-07T14:07:12;59.08;;;42.92;;
69890;SDS011;57170;43.964;21.262;2023-12-07T14:09:43;58.75;;;46.97;;
69890;SDS011;57170;43.964;21.262;2023-12-07T14:12:09;65.38;;;49.05;;